Aérodrome :
LOGIN :

S'inscrire | Disclaimer

   EN    FR    IT 

 










Légende :    VFR   VFR Marginal   IFR   IFR Intensif   IFR Très Intensif
Visi : 
Plafond : 
>= 8 km
>= 3000ft
5 à 8 km
1000 à 3000 ft
1500m à 5 km
500 à 1000 ft
800 à 1500m
200 à 500 ft
< 800m
< 200 ft
Symboles :   Orages  Brouillard  Fortes neiges  Fortes précipitations  Vent > 20 kt
SIGMETs :   Divers  Orages  Givrage  Turbulence  Onde Orograph.  Cendres Volcan.







- Altitude de l'aérodrome : 56 ft
- Code IATA : BZR
- Voir les cartes d'approche


LFMU - Beziers / Vias

DERNIER METAR :
  • 211730Z AUTO VRB01KT 9999 OVC048 12/09 Q1013 NOSIG

METARs EXPIRÉS :
  • 211700Z AUTO 03005KT 9999 OVC047 12/09 Q1012 NOSIG
  • 211630Z AUTO 04007KT 9999 FEW017 OVC045 12/09 Q1012 NOSIG
  • 211600Z AUTO 05004KT 9999 FEW017 OVC042 12/09 Q1012 NOSIG
  • 211530Z AUTO 05005KT 9999 OVC038 12/10 Q1012 NOSIG
  • 211500Z AUTO 06006KT 9999 FEW029 OVC038 13/10 Q1011 NOSIG

TAF TAF LFMU
Valide du 21 à 15h jusqu'au 22 à 15h UTC


211400Z 2115/2215 07010KT 9999 SCT010 BKN020
BECMG 2213/2215 CAVOK
ATIS : +33 4 67 90 88 88
Pas de NOTAMs connus pour ce terrain.



MET'MAP, la Météo Aéronautique d'un coup d'oeil ! - Copyright ORBIFLY Décembre 2007 - Disclaimer

ORBIFLY MET'MAP TEAM :

Programmation & Développement : Alexandra Zaïnal
Conception & Développement : Baudouin d'Aumeries
Co-Programmation & Développement : Marc-Olivier Méhu
Soutien technique & logistique : Manuel Goepfert

Contact : metmap@orbifly.com




SOURCES & CREDITS :

   NOAA